sensor_id;sensor_type;location;lat;lon;timestamp;pressure;altitude;pressure_sealevel;temperature;humidity
62895;BME280;49204;44.916;37.998;2022-10-26T00:01:28;101691.73;;;8.91;83.36
62895;BME280;49204;44.916;37.998;2022-10-26T00:03:57;101700.16;;;8.85;83.63
62895;BME280;49204;44.916;37.998;2022-10-26T00:06:26;101693.66;;;8.81;83.87
62895;BME280;49204;44.916;37.998;2022-10-26T00:08:56;101699.38;;;8.79;84.04
62895;BME280;49204;44.916;37.998;2022-10-26T00:11:25;101688.89;;;8.77;84.02
62895;BME280;49204;44.916;37.998;2022-10-26T00:13:54;101689.80;;;8.76;84.08
62895;BME280;49204;44.916;37.998;2022-10-26T00:16:25;101685.43;;;8.75;84.12
62895;BME280;49204;44.916;37.998;2022-10-26T00:18:54;101680.56;;;8.78;84.02
62895;BME280;49204;44.916;37.998;2022-10-26T00:21:23;101680.63;;;8.75;83.82
62895;BME280;49204;44.916;37.998;2022-10-26T00:23:52;101674.56;;;8.71;83.74
62895;BME280;49204;44.916;37.998;2022-10-26T00:26:21;101665.44;;;8.66;83.67
62895;BME280;49204;44.916;37.998;2022-10-26T00:28:54;101660.25;;;8.63;83.50
62895;BME280;49204;44.916;37.998;2022-10-26T00:31:23;101659.84;;;8.61;83.41
62895;BME280;49204;44.916;37.998;2022-10-26T00:33:56;101659.82;;;8.62;83.47
62895;BME280;49204;44.916;37.998;2022-10-26T00:36:26;101654.95;;;8.65;83.58
62895;BME280;49204;44.916;37.998;2022-10-26T00:38:56;101653.69;;;8.63;83.76
62895;BME280;49204;44.916;37.998;2022-10-26T00:41:30;101658.05;;;8.63;83.68
62895;BME280;49204;44.916;37.998;2022-10-26T00:44:00;101659.36;;;8.63;83.63
62895;BME280;49204;44.916;37.998;2022-10-26T00:46:31;101662.94;;;8.59;83.81
62895;BME280;49204;44.916;37.998;2022-10-26T00:49:07;101656.38;;;8.59;83.74
62895;BME280;49204;44.916;37.998;2022-10-26T00:51:37;101653.75;;;8.59;83.64
62895;BME280;49204;44.916;37.998;2022-10-26T00:54:09;101652.44;;;8.59;83.56
62895;BME280;49204;44.916;37.998;2022-10-26T00:56:38;101653.86;;;8.53;83.49
62895;BME280;49204;44.916;37.998;2022-10-26T00:59:10;101644.75;;;8.46;83.53
62895;BME280;49204;44.916;37.998;2022-10-26T01:01:42;101640.90;;;8.42;83.54
62895;BME280;49204;44.916;37.998;2022-10-26T01:04:12;101631.70;;;8.43;83.42
62895;BME280;49204;44.916;37.998;2022-10-26T01:06:42;101622.97;;;8.43;83.38
62895;BME280;49204;44.916;37.998;2022-10-26T01:09:11;101625.45;;;8.50;83.39
62895;BME280;49204;44.916;37.998;2022-10-26T01:11:40;101624.42;;;8.59;83.45
62895;BME280;49204;44.916;37.998;2022-10-26T01:14:11;101623.25;;;8.77;83.54
62895;BME280;49204;44.916;37.998;2022-10-26T01:25:27;101616.95;;;8.87;82.62
62895;BME280;49204;44.916;37.998;2022-10-26T01:27:54;101617.52;;;8.79;82.48
62895;BME280;49204;44.916;37.998;2022-10-26T01:30:40;101612.00;;;8.71;82.37
62895;BME280;49204;44.916;37.998;2022-10-26T01:33:27;101612.09;;;8.64;82.37
62895;BME280;49204;44.916;37.998;2022-10-26T01:38:49;101610.44;;;8.59;82.45
62895;BME280;49204;44.916;37.998;2022-10-26T01:41:37;101617.52;;;8.54;82.22
62895;BME280;49204;44.916;37.998;2022-10-26T01:44:12;101620.25;;;8.47;82.00
62895;BME280;49204;44.916;37.998;2022-10-26T01:46:42;101612.45;;;8.41;81.89
62895;BME280;49204;44.916;37.998;2022-10-26T01:49:13;101616.09;;;8.31;81.93
62895;BME280;49204;44.916;37.998;2022-10-26T01:51:44;101611.01;;;8.20;82.18
62895;BME280;49204;44.916;37.998;2022-10-26T01:54:14;101615.89;;;8.16;82.33
62895;BME280;49204;44.916;37.998;2022-10-26T01:56:49;101616.83;;;8.12;82.33
62895;BME280;49204;44.916;37.998;2022-10-26T02:02:08;101618.21;;;8.06;82.21
62895;BME280;49204;44.916;37.998;2022-10-26T02:05:00;101615.30;;;7.97;82.33
62895;BME280;49204;44.916;37.998;2022-10-26T02:07:42;101612.71;;;7.94;82.42
62895;BME280;49204;44.916;37.998;2022-10-26T02:21:28;101619.78;;;7.87;82.01
62895;BME280;49204;44.916;37.998;2022-10-26T02:23:57;101616.74;;;7.88;81.92
62895;BME280;49204;44.916;37.998;2022-10-26T02:26:28;101625.45;;;7.90;82.04
62895;BME280;49204;44.916;37.998;2022-10-26T02:29:00;101624.59;;;7.89;82.10
62895;BME280;49204;44.916;37.998;2022-10-26T02:31:30;101628.95;;;7.89;82.08
62895;BME280;49204;44.916;37.998;2022-10-26T02:34:03;101621.98;;;7.88;82.15
62895;BME280;49204;44.916;37.998;2022-10-26T02:36:33;101623.31;;;7.86;82.21
62895;BME280;49204;44.916;37.998;2022-10-26T02:39:04;101619.39;;;7.85;82.28
62895;BME280;49204;44.916;37.998;2022-10-26T02:41:35;101609.87;;;7.78;82.46
62895;BME280;49204;44.916;37.998;2022-10-26T02:44:25;101611.66;;;7.76;82.53
62895;BME280;49204;44.916;37.998;2022-10-26T02:46:55;101605.55;;;7.75;82.54
62895;BME280;49204;44.916;37.998;2022-10-26T02:49:25;101601.16;;;7.76;82.34
62895;BME280;49204;44.916;37.998;2022-10-26T02:52:18;101598.55;;;7.76;82.27
62895;BME280;49204;44.916;37.998;2022-10-26T02:57:35;101584.62;;;7.70;82.33
62895;BME280;49204;44.916;37.998;2022-10-26T03:00:08;101579.85;;;7.68;82.37
62895;BME280;49204;44.916;37.998;2022-10-26T03:02:37;101574.14;;;7.70;82.17
62895;BME280;49204;44.916;37.998;2022-10-26T03:05:12;101568.05;;;7.68;82.10
62895;BME280;49204;44.916;37.998;2022-10-26T03:07:38;101566.74;;;7.68;82.06
62895;BME280;49204;44.916;37.998;2022-10-26T03:10:07;101566.83;;;7.64;82.25
62895;BME280;49204;44.916;37.998;2022-10-26T03:12:36;101564.61;;;7.65;82.26
62895;BME280;49204;44.916;37.998;2022-10-26T03:15:06;101566.78;;;7.65;82.26
62895;BME280;49204;44.916;37.998;2022-10-26T03:17:35;101563.25;;;7.69;82.23
62895;BME280;49204;44.916;37.998;2022-10-26T03:20:05;101556.68;;;7.71;82.17
62895;BME280;49204;44.916;37.998;2022-10-26T03:22:34;101553.19;;;7.69;82.40
62895;BME280;49204;44.916;37.998;2022-10-26T03:25:03;101551.86;;;7.70;82.31
62895;BME280;49204;44.916;37.998;2022-10-26T03:27:32;101554.91;;;7.71;82.31
62895;BME280;49204;44.916;37.998;2022-10-26T03:30:01;101551.45;;;7.69;82.52
62895;BME280;49204;44.916;37.998;2022-10-26T03:32:30;101551.86;;;7.70;82.41
62895;BME280;49204;44.916;37.998;2022-10-26T03:34:59;101552.30;;;7.71;82.34
62895;BME280;49204;44.916;37.998;2022-10-26T03:37:28;101548.81;;;7.71;82.28
62895;BME280;49204;44.916;37.998;2022-10-26T03:39:57;101545.30;;;7.70;82.31
62895;BME280;49204;44.916;37.998;2022-10-26T03:42:25;101553.19;;;7.69;82.25
62895;BME280;49204;44.916;37.998;2022-10-26T03:44:54;101552.77;;;7.69;82.17
62895;BME280;49204;44.916;37.998;2022-10-26T03:47:23;101554.08;;;7.69;82.11
62895;BME280;49204;44.916;37.998;2022-10-26T03:49:51;101555.38;;;7.69;82.06
62895;BME280;49204;44.916;37.998;2022-10-26T03:52:20;101550.14;;;7.69;82.12
62895;BME280;49204;44.916;37.998;2022-10-26T03:54:51;101545.77;;;7.68;82.17
62895;BME280;49204;44.916;37.998;2022-10-26T03:57:19;101545.41;;;7.64;82.28
62895;BME280;49204;44.916;37.998;2022-10-26T03:59:48;101548.96;;;7.60;82.55
62895;BME280;49204;44.916;37.998;2022-10-26T04:02:17;101552.05;;;7.58;82.74
62895;BME280;49204;44.916;37.998;2022-10-26T04:04:46;101550.73;;;7.58;82.77
62895;BME280;49204;44.916;37.998;2022-10-26T04:07:15;101543.28;;;7.59;82.77
62895;BME280;49204;44.916;37.998;2022-10-26T04:09:44;101541.97;;;7.59;82.85
62895;BME280;49204;44.916;37.998;2022-10-26T04:12:12;101545.44;;;7.61;82.85
62895;BME280;49204;44.916;37.998;2022-10-26T04:14:41;101546.28;;;7.63;82.86
62895;BME280;49204;44.916;37.998;2022-10-26T04:17:10;101540.12;;;7.67;83.04
62895;BME280;49204;44.916;37.998;2022-10-26T04:19:39;101548.30;;;7.74;82.92
62895;BME280;49204;44.916;37.998;2022-10-26T04:22:07;101548.21;;;7.82;82.80
62895;BME280;49204;44.916;37.998;2022-10-26T04:24:36;101558.97;;;7.92;82.64
62895;BME280;49204;44.916;37.998;2022-10-26T04:27:05;101557.50;;;8.03;82.49
62895;BME280;49204;44.916;37.998;2022-10-26T04:29:34;101551.19;;;8.15;82.30
62895;BME280;49204;44.916;37.998;2022-10-26T04:32:03;101550.17;;;8.24;82.19
62895;BME280;49204;44.916;37.998;2022-10-26T04:34:31;101556.22;;;8.29;82.21
62895;BME280;49204;44.916;37.998;2022-10-26T04:37:00;101556.52;;;8.38;82.14
62895;BME280;49204;44.916;37.998;2022-10-26T04:39:29;101562.05;;;8.48;81.93
62895;BME280;49204;44.916;37.998;2022-10-26T04:41:58;101565.41;;;8.58;81.77
62895;BME280;49204;44.916;37.998;2022-10-26T04:44:27;101572.20;;;8.68;81.63
62895;BME280;49204;44.916;37.998;2022-10-26T04:47:16;101561.99;;;8.77;81.45
62895;BME280;49204;44.916;37.998;2022-10-26T04:49:45;101569.34;;;8.82;81.25
62895;BME280;49204;44.916;37.998;2022-10-26T04:52:14;101573.66;;;8.84;81.07
62895;BME280;49204;44.916;37.998;2022-10-26T04:54:42;101575.33;;;8.88;80.92
62895;BME280;49204;44.916;37.998;2022-10-26T04:57:11;101565.18;;;8.93;80.89
62895;BME280;49204;44.916;37.998;2022-10-26T04:59:40;101562.50;;;8.96;80.86
62895;BME280;49204;44.916;37.998;2022-10-26T05:02:08;101551.84;;;9.03;80.78
62895;BME280;49204;44.916;37.998;2022-10-26T05:04:37;101559.60;;;9.11;80.75
62895;BME280;49204;44.916;37.998;2022-10-26T05:07:06;101567.88;;;9.12;80.83
62895;BME280;49204;44.916;37.998;2022-10-26T05:09:35;101569.95;;;9.19;80.91
62895;BME280;49204;44.916;37.998;2022-10-26T05:12:04;101572.42;;;9.26;80.83
62895;BME280;49204;44.916;37.998;2022-10-26T05:14:33;101565.61;;;9.39;80.61
62895;BME280;49204;44.916;37.998;2022-10-26T05:17:01;101567.91;;;9.54;80.36
62895;BME280;49204;44.916;37.998;2022-10-26T05:19:30;101563.95;;;9.74;80.20
62895;BME280;49204;44.916;37.998;2022-10-26T05:21:59;101559.25;;;9.88;80.02
62895;BME280;49204;44.916;37.998;2022-10-26T05:24:28;101561.94;;;10.04;79.78
62895;BME280;49204;44.916;37.998;2022-10-26T05:26:57;101564.69;;;10.18;79.66
62895;BME280;49204;44.916;37.998;2022-10-26T05:29:25;101568.31;;;10.33;79.49
62895;BME280;49204;44.916;37.998;2022-10-26T05:31:54;101566.86;;;10.56;79.33
62895;BME280;49204;44.916;37.998;2022-10-26T05:34:23;101557.41;;;10.81;79.07
62895;BME280;49204;44.916;37.998;2022-10-26T05:36:52;101553.28;;;10.88;78.82
62895;BME280;49204;44.916;37.998;2022-10-26T05:39:21;101558.41;;;10.94;78.73
62895;BME280;49204;44.916;37.998;2022-10-26T05:41:50;101555.98;;;11.01;78.63
62895;BME280;49204;44.916;37.998;2022-10-26T05:44:19;101552.70;;;11.09;78.42
62895;BME280;49204;44.916;37.998;2022-10-26T05:46:48;101551.47;;;11.36;78.12
62895;BME280;49204;44.916;37.998;2022-10-26T05:49:17;101543.77;;;11.73;78.10
62895;BME280;49204;44.916;37.998;2022-10-26T05:51:45;101543.86;;;12.00;77.79
62895;BME280;49204;44.916;37.998;2022-10-26T05:54:14;101536.20;;;12.19;77.46
62895;BME280;49204;44.916;37.998;2022-10-26T05:56:43;101540.81;;;12.39;77.28
62895;BME280;49204;44.916;37.998;2022-10-26T05:59:14;101545.00;;;12.71;77.10
62895;BME280;49204;44.916;37.998;2022-10-26T06:01:53;101545.42;;;13.21;76.88
62895;BME280;49204;44.916;37.998;2022-10-26T06:04:25;101551.89;;;13.37;76.33
62895;BME280;49204;44.916;37.998;2022-10-26T06:06:53;101549.95;;;13.76;75.90
62895;BME280;49204;44.916;37.998;2022-10-26T06:09:23;101555.03;;;14.15;75.04
62895;BME280;49204;44.916;37.998;2022-10-26T06:11:52;101549.31;;;14.46;74.13
62895;BME280;49204;44.916;37.998;2022-10-26T06:14:22;101541.25;;;14.80;73.81
62895;BME280;49204;44.916;37.998;2022-10-26T06:17:27;101535.92;;;15.11;73.49
62895;BME280;49204;44.916;37.998;2022-10-26T06:22:59;101536.59;;;15.43;72.91
62895;BME280;49204;44.916;37.998;2022-10-26T06:28:39;101541.34;;;15.56;72.71
62895;BME280;49204;44.916;37.998;2022-10-26T06:31:06;101534.35;;;15.44;72.84
62895;BME280;49204;44.916;37.998;2022-10-26T06:33:35;101530.55;;;15.31;73.05
62895;BME280;49204;44.916;37.998;2022-10-26T06:36:20;101533.89;;;15.16;73.21
62895;BME280;49204;44.916;37.998;2022-10-26T06:39:09;101525.73;;;14.91;73.33
62895;BME280;49204;44.916;37.998;2022-10-26T06:41:23;101527.45;;;14.72;73.45
62895;BME280;49204;44.916;37.998;2022-10-26T06:43:53;101519.66;;;14.58;73.63
62895;BME280;49204;44.916;37.998;2022-10-26T06:46:47;101514.20;;;14.41;73.73
62895;BME280;49204;44.916;37.998;2022-10-26T06:49:36;101519.09;;;14.29;73.81
62895;BME280;49204;44.916;37.998;2022-10-26T06:52:33;101521.86;;;14.26;73.90
62895;BME280;49204;44.916;37.998;2022-10-26T06:55:02;101521.33;;;14.28;73.94
62895;BME280;49204;44.916;37.998;2022-10-26T06:57:35;101517.30;;;14.30;73.99
62895;BME280;49204;44.916;37.998;2022-10-26T07:00:13;101523.45;;;14.31;74.08
62895;BME280;49204;44.916;37.998;2022-10-26T07:02:37;101521.47;;;14.36;74.12
62895;BME280;49204;44.916;37.998;2022-10-26T07:05:06;101522.15;;;14.41;74.17
62895;BME280;49204;44.916;37.998;2022-10-26T07:07:42;101518.31;;;14.48;74.25
62895;BME280;49204;44.916;37.998;2022-10-26T07:10:12;101512.11;;;14.59;74.33
62895;BME280;49204;44.916;37.998;2022-10-26T07:12:41;101515.09;;;14.72;74.35
62895;BME280;49204;44.916;37.998;2022-10-26T07:15:10;101516.03;;;14.90;74.36
62895;BME280;49204;44.916;37.998;2022-10-26T07:17:45;101516.94;;;15.10;74.34
62895;BME280;49204;44.916;37.998;2022-10-26T07:20:19;101522.86;;;15.25;74.25
62895;BME280;49204;44.916;37.998;2022-10-26T07:22:53;101518.92;;;15.34;74.19
62895;BME280;49204;44.916;37.998;2022-10-26T07:25:23;101515.77;;;15.44;74.06
62895;BME280;49204;44.916;37.998;2022-10-26T07:27:57;101515.58;;;15.58;73.97
62895;BME280;49204;44.916;37.998;2022-10-26T07:30:26;101511.39;;;15.71;73.89
62895;BME280;49204;44.916;37.998;2022-10-26T07:33:03;101506.62;;;15.79;73.76
62895;BME280;49204;44.916;37.998;2022-10-26T07:35:32;101502.50;;;15.82;73.62
62895;BME280;49204;44.916;37.998;2022-10-26T07:38:01;101503.45;;;15.90;73.59
62895;BME280;49204;44.916;37.998;2022-10-26T07:40:31;101497.73;;;15.89;73.54
62895;BME280;49204;44.916;37.998;2022-10-26T07:43:00;101496.88;;;15.89;73.50
62895;BME280;49204;44.916;37.998;2022-10-26T07:45:29;101506.41;;;15.93;73.49
62895;BME280;49204;44.916;37.998;2022-10-26T07:47:58;101506.48;;;15.91;73.57
62895;BME280;49204;44.916;37.998;2022-10-26T07:50:27;101508.52;;;15.86;73.63
62895;BME280;49204;44.916;37.998;2022-10-26T07:52:57;101507.64;;;15.86;73.60
62895;BME280;49204;44.916;37.998;2022-10-26T07:55:26;101507.64;;;15.86;73.58
62895;BME280;49204;44.916;37.998;2022-10-26T07:57:55;101512.67;;;15.92;73.18
62895;BME280;49204;44.916;37.998;2022-10-26T08:00:24;101512.84;;;15.97;72.95
62895;BME280;49204;44.916;37.998;2022-10-26T08:02:53;101510.27;;;16.05;72.78
62895;BME280;49204;44.916;37.998;2022-10-26T08:05:22;101514.79;;;16.11;72.38
62895;BME280;49204;44.916;37.998;2022-10-26T08:07:51;101518.86;;;16.18;72.13
62895;BME280;49204;44.916;37.998;2022-10-26T08:10:20;101514.01;;;16.27;72.06
62895;BME280;49204;44.916;37.998;2022-10-26T08:12:49;101511.98;;;16.32;71.78
62895;BME280;49204;44.916;37.998;2022-10-26T08:15:19;101511.70;;;16.38;71.70
62895;BME280;49204;44.916;37.998;2022-10-26T08:17:48;101511.59;;;16.48;71.23
62895;BME280;49204;44.916;37.998;2022-10-26T08:20:16;101514.18;;;16.58;71.05
62895;BME280;49204;44.916;37.998;2022-10-26T08:22:45;101499.22;;;16.65;70.66
62895;BME280;49204;44.916;37.998;2022-10-26T08:25:14;101505.02;;;16.73;70.61
62895;BME280;49204;44.916;37.998;2022-10-26T08:27:43;101506.78;;;16.81;70.30
62895;BME280;49204;44.916;37.998;2022-10-26T08:30:12;101502.34;;;16.90;70.28
62895;BME280;49204;44.916;37.998;2022-10-26T08:32:42;101501.55;;;16.97;70.13
62895;BME280;49204;44.916;37.998;2022-10-26T08:35:11;101497.91;;;17.07;69.86
62895;BME280;49204;44.916;37.998;2022-10-26T08:37:40;101485.23;;;17.12;69.61
62895;BME280;49204;44.916;37.998;2022-10-26T08:40:10;101490.84;;;17.14;69.20
62895;BME280;49204;44.916;37.998;2022-10-26T08:42:42;101486.42;;;17.22;69.27
62895;BME280;49204;44.916;37.998;2022-10-26T08:45:38;101482.11;;;17.28;69.07
62895;BME280;49204;44.916;37.998;2022-10-26T08:48:19;101477.00;;;17.32;69.00
62895;BME280;49204;44.916;37.998;2022-10-26T08:50:53;101466.95;;;17.38;68.91
62895;BME280;49204;44.916;37.998;2022-10-26T08:56:49;101466.48;;;17.38;67.88
62895;BME280;49204;44.916;37.998;2022-10-26T08:58:36;101470.55;;;17.36;67.57
62895;BME280;49204;44.916;37.998;2022-10-26T09:01:03;101469.38;;;17.33;67.15
62895;BME280;49204;44.916;37.998;2022-10-26T09:03:32;101460.17;;;17.32;66.98
62895;BME280;49204;44.916;37.998;2022-10-26T09:17:33;101448.48;;;17.50;66.46
62895;BME280;49204;44.916;37.998;2022-10-26T09:23:13;101434.90;;;17.55;66.15
62895;BME280;49204;44.916;37.998;2022-10-26T09:25:39;101425.41;;;17.58;66.15
62895;BME280;49204;44.916;37.998;2022-10-26T09:28:11;101418.02;;;17.63;65.93
62895;BME280;49204;44.916;37.998;2022-10-26T09:30:42;101402.41;;;17.64;65.13
62895;BME280;49204;44.916;37.998;2022-10-26T09:33:24;101389.27;;;17.61;64.12
62895;BME280;49204;44.916;37.998;2022-10-26T09:36:00;101389.27;;;17.61;64.37
62895;BME280;49204;44.916;37.998;2022-10-26T09:38:45;101376.52;;;17.59;63.66
62895;BME280;49204;44.916;37.998;2022-10-26T09:44:06;101363.28;;;17.58;63.32
62895;BME280;49204;44.916;37.998;2022-10-26T09:46:48;101358.45;;;17.57;62.58
62895;BME280;49204;44.916;37.998;2022-10-26T09:49:12;101359.02;;;17.55;62.89
62895;BME280;49204;44.916;37.998;2022-10-26T09:51:43;101353.41;;;17.52;62.89
62895;BME280;49204;44.916;37.998;2022-10-26T09:54:17;101349.86;;;17.52;63.30
62895;BME280;49204;44.916;37.998;2022-10-26T09:56:51;101361.48;;;17.51;63.24
62895;BME280;49204;44.916;37.998;2022-10-26T09:59:23;101359.83;;;17.48;62.87
62895;BME280;49204;44.916;37.998;2022-10-26T10:01:52;101360.40;;;17.46;62.85
62895;BME280;49204;44.916;37.998;2022-10-26T10:04:22;101360.11;;;17.44;62.52
62895;BME280;49204;44.916;37.998;2022-10-26T10:09:34;101348.50;;;17.38;62.53
62895;BME280;49204;44.916;37.998;2022-10-26T10:12:04;101352.27;;;17.33;62.48
62895;BME280;49204;44.916;37.998;2022-10-26T10:14:38;101353.80;;;17.30;61.78
62895;BME280;49204;44.916;37.998;2022-10-26T10:17:21;101336.86;;;17.31;61.76
62895;BME280;49204;44.916;37.998;2022-10-26T10:19:46;101336.86;;;17.31;62.08
62895;BME280;49204;44.916;37.998;2022-10-26T10:22:18;101340.48;;;17.30;62.10
62895;BME280;49204;44.916;37.998;2022-10-26T10:24:59;101347.59;;;17.30;61.82
62895;BME280;49204;44.916;37.998;2022-10-26T10:27:30;101340.48;;;17.30;61.58
62895;BME280;49204;44.916;37.998;2022-10-26T10:30:18;101340.28;;;17.33;61.53
62895;BME280;49204;44.916;37.998;2022-10-26T10:32:31;101334.87;;;17.35;61.80
62895;BME280;49204;44.916;37.998;2022-10-26T10:35:00;101339.36;;;17.34;61.92
62895;BME280;49204;44.916;37.998;2022-10-26T10:37:32;101347.73;;;17.35;61.78
62895;BME280;49204;44.916;37.998;2022-10-26T10:40:06;101346.86;;;17.35;62.07
62895;BME280;49204;44.916;37.998;2022-10-26T10:42:38;101342.02;;;17.34;62.26
62895;BME280;49204;44.916;37.998;2022-10-26T10:45:19;101332.30;;;17.33;62.40
62895;BME280;49204;44.916;37.998;2022-10-26T10:50:58;101334.28;;;17.30;62.67
62895;BME280;49204;44.916;37.998;2022-10-26T10:53:36;101337.98;;;17.27;62.69
62895;BME280;49204;44.916;37.998;2022-10-26T11:01:19;101343.84;;;17.18;63.10
62895;BME280;49204;44.916;37.998;2022-10-26T11:04:07;101354.56;;;17.16;63.20
62895;BME280;49204;44.916;37.998;2022-10-26T11:06:35;101354.97;;;17.17;63.34
62895;BME280;49204;44.916;37.998;2022-10-26T11:09:08;101359.64;;;17.21;63.40
62895;BME280;49204;44.916;37.998;2022-10-26T11:11:59;101359.68;;;17.28;63.33
62895;BME280;49204;44.916;37.998;2022-10-26T11:17:03;101345.27;;;17.40;63.17
62895;BME280;49204;44.916;37.998;2022-10-26T11:20:17;101351.20;;;17.45;63.15
62895;BME280;49204;44.916;37.998;2022-10-26T11:22:13;101353.09;;;17.50;63.18
62895;BME280;49204;44.916;37.998;2022-10-26T11:24:43;101359.58;;;17.53;63.22
62895;BME280;49204;44.916;37.998;2022-10-26T11:27:14;101360.34;;;17.55;63.16
62895;BME280;49204;44.916;37.998;2022-10-26T11:30:02;101357.11;;;17.57;62.44
62895;BME280;49204;44.916;37.998;2022-10-26T11:32:46;101352.95;;;17.60;62.36
62895;BME280;49204;44.916;37.998;2022-10-26T11:35:21;101354.56;;;17.63;62.33
62895;BME280;49204;44.916;37.998;2022-10-26T11:38:00;101361.70;;;17.62;62.36
62895;BME280;49204;44.916;37.998;2022-10-26T11:43:37;101370.62;;;17.54;61.76
62895;BME280;49204;44.916;37.998;2022-10-26T11:46:21;101357.84;;;17.52;61.96
62895;BME280;49204;44.916;37.998;2022-10-26T11:49:01;101351.76;;;17.50;62.06
62895;BME280;49204;44.916;37.998;2022-10-26T11:54:30;101359.55;;;17.46;62.32
62895;BME280;49204;44.916;37.998;2022-10-26T11:56:59;101369.83;;;17.45;62.46
62895;BME280;49204;44.916;37.998;2022-10-26T11:59:32;101362.78;;;17.44;62.53
62895;BME280;49204;44.916;37.998;2022-10-26T12:02:13;101370.36;;;17.43;62.69
62895;BME280;49204;44.916;37.998;2022-10-26T12:04:43;101365.61;;;17.41;62.73
62895;BME280;49204;44.916;37.998;2022-10-26T12:07:32;101369.59;;;17.41;62.82
62895;BME280;49204;44.916;37.998;2022-10-26T12:09:55;101374.56;;;17.40;62.92
62895;BME280;49204;44.916;37.998;2022-10-26T12:12:37;101372.63;;;17.34;62.96
62895;BME280;49204;44.916;37.998;2022-10-26T12:20:51;101374.84;;;17.26;63.27
62895;BME280;49204;44.916;37.998;2022-10-26T12:23:17;101367.43;;;17.24;63.33
62895;BME280;49204;44.916;37.998;2022-10-26T12:25:46;101356.98;;;17.21;63.37
62895;BME280;49204;44.916;37.998;2022-10-26T12:34:22;101365.13;;;17.18;63.50
62895;BME280;49204;44.916;37.998;2022-10-26T12:39:44;101371.58;;;17.14;63.88
62895;BME280;49204;44.916;37.998;2022-10-26T12:52:56;101364.72;;;17.10;64.08
62895;BME280;49204;44.916;37.998;2022-10-26T12:55:53;101357.38;;;17.06;64.21
62895;BME280;49204;44.916;37.998;2022-10-26T13:09:24;101358.83;;;16.96;64.63
62895;BME280;49204;44.916;37.998;2022-10-26T13:11:55;101346.94;;;16.94;64.69
62895;BME280;49204;44.916;37.998;2022-10-26T13:14:28;101333.35;;;16.92;64.83
62895;BME280;49204;44.916;37.998;2022-10-26T13:16:57;101338.35;;;16.89;64.98
62895;BME280;49204;44.916;37.998;2022-10-26T13:19:40;101337.02;;;16.89;65.12
62895;BME280;49204;44.916;37.998;2022-10-26T13:22:19;101345.41;;;16.90;65.19
62895;BME280;49204;44.916;37.998;2022-10-26T13:24:50;101353.46;;;16.89;65.33
62895;BME280;49204;44.916;37.998;2022-10-26T13:27:22;101361.44;;;16.89;65.36
62895;BME280;49204;44.916;37.998;2022-10-26T13:32:42;101369.34;;;16.90;65.59
62895;BME280;49204;44.916;37.998;2022-10-26T13:35:14;101369.27;;;16.92;65.59
62895;BME280;49204;44.916;37.998;2022-10-26T13:37:46;101380.27;;;16.93;65.61
62895;BME280;49204;44.916;37.998;2022-10-26T13:40:23;101379.05;;;16.91;65.68
62895;BME280;49204;44.916;37.998;2022-10-26T13:42:58;101370.19;;;16.91;65.71
62895;BME280;49204;44.916;37.998;2022-10-26T13:45:46;101372.93;;;16.89;65.80
62895;BME280;49204;44.916;37.998;2022-10-26T13:48:13;101375.70;;;16.88;65.86
62895;BME280;49204;44.916;37.998;2022-10-26T13:50:54;101377.11;;;16.86;65.94
62895;BME280;49204;44.916;37.998;2022-10-26T13:56:12;101369.50;;;16.87;66.12
62895;BME280;49204;44.916;37.998;2022-10-26T13:58:44;101368.17;;;16.87;66.17
62895;BME280;49204;44.916;37.998;2022-10-26T14:01:16;101365.14;;;16.86;66.14
62895;BME280;49204;44.916;37.998;2022-10-26T14:03:47;101369.77;;;16.83;66.24
62895;BME280;49204;44.916;37.998;2022-10-26T14:06:33;101366.39;;;16.79;66.35
62895;BME280;49204;44.916;37.998;2022-10-26T14:09:15;101368.06;;;16.73;66.48
62895;BME280;49204;44.916;37.998;2022-10-26T14:11:48;101357.38;;;16.66;66.67
62895;BME280;49204;44.916;37.998;2022-10-26T14:14:25;101340.04;;;16.58;67.02
62895;BME280;49204;44.916;37.998;2022-10-26T14:16:52;101336.21;;;16.55;67.26
62895;BME280;49204;44.916;37.998;2022-10-26T14:19:29;101335.44;;;16.53;67.63
62895;BME280;49204;44.916;37.998;2022-10-26T14:21:59;101323.88;;;16.54;68.06
62895;BME280;49204;44.916;37.998;2022-10-26T14:24:30;101319.78;;;16.56;68.34
62895;BME280;49204;44.916;37.998;2022-10-26T14:27:00;101316.56;;;16.58;68.54
62895;BME280;49204;44.916;37.998;2022-10-26T14:29:30;101319.89;;;16.54;68.44
62895;BME280;49204;44.916;37.998;2022-10-26T14:32:00;101316.91;;;16.52;68.52
62895;BME280;49204;44.916;37.998;2022-10-26T14:34:28;101307.31;;;16.49;68.67
62895;BME280;49204;44.916;37.998;2022-10-26T14:37:01;101311.30;;;16.49;68.83
62895;BME280;49204;44.916;37.998;2022-10-26T14:39:40;101304.66;;;16.49;68.88
62895;BME280;49204;44.916;37.998;2022-10-26T14:42:28;101305.11;;;16.49;69.03
62895;BME280;49204;44.916;37.998;2022-10-26T14:44:58;101314.89;;;16.48;69.11
62895;BME280;49204;44.916;37.998;2022-10-26T14:47:34;101317.17;;;16.47;69.21
62895;BME280;49204;44.916;37.998;2022-10-26T14:50:00;101325.31;;;16.44;69.36
62895;BME280;49204;44.916;37.998;2022-10-26T14:52:36;101326.80;;;16.41;69.42
62895;BME280;49204;44.916;37.998;2022-10-26T14:55:15;101324.21;;;16.39;69.65
62895;BME280;49204;44.916;37.998;2022-10-26T14:57:46;101311.11;;;16.36;69.83
62895;BME280;49204;44.916;37.998;2022-10-26T15:00:18;101316.50;;;16.35;70.08
62895;BME280;49204;44.916;37.998;2022-10-26T15:02:55;101323.15;;;16.35;70.11
62895;BME280;49204;44.916;37.998;2022-10-26T15:05:26;101340.98;;;16.33;70.17